Flight Track Log - Related Links

Times and Time Zones

All times are in EDT time to prevent confusion due to time zone crossing. See the UAL817 flight status page for this flight to view local times or setup timezone preferences in your user account.


Time Position Orientation Groundspeed Altitude Reporting Facility
EDT Latitude Longitude Course Direction KTS MPH feet Rate Location/Type
Sat 12:16:38 PM 40.6500 -74.1833 224° Southwest 189 217 1,900  Level New York TRACON
Sat 12:17:38 PM 40.5833 -74.2333 210° Southwest 262 302 4,200 1,528 Climbing New York TRACON
Sat 12:18:00 PM 40.3610 -74.1771 161° South  Level FlightAware Approximate
Sat 12:19:00 PM 40.2471 -74.1676 194° South  Level FlightAware Approximate
Sat 12:19:19 PM 40.4814 -74.2444 185° South 264 304 6,000  Level New York Center
Sat 12:20:00 PM 40.1285 -74.2000 180° South  Level FlightAware Approximate
Sat 12:20:18 PM 40.4114 -74.2108 160° South 264 304 6,000  Level New York Center
Sat 12:21:00 PM 40.0126 -74.2374 217° Southwest  Level FlightAware Approximate
Sat 12:21:19 PM 40.3397 -74.1747 159° South 276 318 6,900  Level New York Center
Sat 12:22:00 PM 39.9141 -74.3282 224° Southwest  Level FlightAware Approximate
Sat 12:22:21 PM 40.2667 -74.1739 180° South 276 318 10,100  Level New York Center
Sat 12:23:18 PM 40.1931 -74.2000 195° South 282 325 12,100 1,815 Climbing New York Center
Sat 12:24:20 PM 40.1006 -74.2253 192° South 320 368 13,700 2,951 Climbing New York Center
Sat 12:25:20 PM 40.0017 -74.2611 196° South 344 396 18,100 3,421 Climbing New York Center
Sat 12:26:21 PM 39.9267 -74.3250 213° Southwest 344 396 20,600 1,536 Climbing New York Center
Sat 12:27:25 PM 39.8286 -74.4161 216° Southwest 346 398 21,300 726 Climbing Washington Center
Sat 12:28:25 PM 39.7461 -74.5228 225° Southwest 399 459 22,100 1,017 Climbing Washington Center
Sat 12:29:23 PM 39.6639 -74.6344 226° Southwest 417 480 23,300 1,261 Climbing Washington Center
Sat 12:30:24 PM 39.5792 -74.7433 225° Southwest 437 503 24,600 1,230 Climbing Washington Center
Sat 12:31:25 PM 39.4944 -74.8575 226° Southwest 450 518 25,800 958 Climbing Washington Center
Sat 12:32:23 PM 39.4181 -74.9575 225° Southwest 450 518 26,500 908 Climbing Washington Center
Sat 12:33:24 PM 39.3331 -75.0711 226° Southwest 445 512 27,600 1,636 Climbing Washington Center
Sat 12:34:24 PM 39.2314 -75.1522 212° Southwest 445 512 29,800 1,714 Climbing Washington Center
Sat 12:35:23 PM 39.1231 -75.2064 201° Southwest 424 488 31,000 857 Climbing Washington Center
Sat 12:36:23 PM 39.0150 -75.2631 202° Southwest 418 481 31,500 545 Climbing Washington Center
Sat 12:37:24 PM 38.9025 -75.3222 202° Southwest 429 494 32,100 836 Climbing Washington Center
Sat 12:38:25 PM 38.7881 -75.3811 202° Southwest 435 501 33,200 1,008 Climbing Washington Center
Sat 12:39:23 PM 38.6733 -75.4428 203° Southwest 440 506 34,100 966 Climbing Washington Center
Sat 12:40:23 PM 38.5608 -75.4989 201° Southwest 440 506 35,100 893 Climbing Washington Center
Sat 12:41:24 PM 38.4483 -75.5572 202° Southwest 440 506 35,900 443 Climbing Washington Center
Sat 12:42:25 PM 38.3358 -75.6181 203° Southwest 440 506 36,000 50 Climbing Washington Center
Sat 12:43:23 PM 38.2211 -75.6711 200° South 435 501 36,000  Level Washington Center
Sat 12:44:24 PM 38.1064 -75.7289 202° Southwest 435 501 36,000  Level Washington Center
Sat 12:45:25 PM 37.9958 -75.7947 205° Southwest 441 507 36,000  Level Washington Center
Sat 12:46:23 PM 37.8789 -75.8469 199° South 441 507 36,000 -51 Level Washington Center
Sat 12:47:23 PM 37.7661 -75.9122 205° Southwest 446 513 35,900  Descending Washington Center
Sat 12:48:24 PM 37.6492 -75.9694 201° Southwest 446 513 36,000 49 Climbing Washington Center
Sat 12:49:25 PM 37.5364 -76.0267 202° Southwest 446 513 36,000  Level Washington Center
Sat 12:50:23 PM 37.4192 -76.0861 202° Southwest 451 519 36,000  Level Washington Center
Sat 12:51:24 PM 37.3064 -76.1428 202° Southwest 451 519 36,000  Level Washington Center
Sat 12:52:22 PM 37.1872 -76.1942 199° South 451 519 36,000  Level Washington Center
Sat 12:53:23 PM 37.0742 -76.2478 201° Southwest 451 519 36,000  Level Washington Center
Sat 12:54:23 PM 36.9614 -76.3042 202° Southwest 451 519 36,000  Level Washington Center
Sat 12:55:25 PM 36.8483 -76.3603 202° Southwest 446 513 36,000  Level Washington Center
Sat 12:56:25 PM 36.7353 -76.4186 202° Southwest 446 513 36,000 -50 Level Washington Center
Sat 12:57:24 PM 36.6097 -76.4847 203° Southwest 446 513 35,900 -50 Descending Washington Center
Sat 12:58:24 PM 36.4944 -76.5375 200° South 446 513 35,900 50 Level Washington Center
Sat 12:59:25 PM 36.3772 -76.5956 202° Southwest 446 513 36,000 50 Climbing Washington Center
Sat 01:00:23 PM 36.2619 -76.6508 201° Southwest 451 519 36,000 -51 Level Washington Center
Sat 01:01:23 PM 36.1489 -76.7058 201° Southwest 451 519 35,900 -50 Descending Washington Center
Sat 01:02:24 PM 36.0336 -76.7581 200° South 451 519 35,900  Level Washington Center
Sat 01:03:25 PM 35.9183 -76.8128 201° Southwest 451 519 35,900  Level Washington Center
Sat 01:04:23 PM 35.8028 -76.8725 203° Southwest 451 519 35,900 50 Level Washington Center
Sat 01:05:24 PM 35.6833 -76.9269 200° South 457 526 36,000 49 Climbing Washington Center
Sat 01:06:25 PM 35.5806 -76.9761 201° Southwest 452 520 36,000  Level Washington Center
Sat 01:07:23 PM 35.4631 -77.0328 201° Southwest 452 520 36,000  Level Washington Center
Sat 01:08:24 PM 35.3456 -77.0894 201° Southwest 452 520 36,000  Level Washington Center
Sat 01:09:24 PM 35.2281 -77.1431 200° South 458 527 36,000  Level Washington Center
Sat 01:10:25 PM 35.1083 -77.1992 201° Southwest 458 527 36,000  Level Washington Center
Sat 01:11:25 PM 34.9864 -77.2575 201° Southwest 458 527 36,000  Level Washington Center
Sat 01:12:23 PM 34.8667 -77.3133 201° Southwest 458 527 36,000 -51 Level Washington Center
Sat 01:13:23 PM 34.7386 -77.3764 202° Southwest 458 527 35,900 -50 Descending Washington Center
Sat 01:14:24 PM 34.6189 -77.4294 200° South 458 527 35,900  Level Washington Center
Sat 01:15:25 PM 34.4992 -77.4769 198° South 458 527 35,900  Level Washington Center
Sat 01:16:25 PM 34.3756 -77.5169 195° South 458 527 35,900 51 Level Washington Center
Sat 01:17:23 PM 34.2517 -77.5567 195° South 458 527 36,000 51 Climbing Washington Center
Sat 01:18:23 PM 34.1258 -77.5964 195° South 463 533 36,000  Level Washington Center
Sat 01:19:22 PM 34.0125 -77.6292 193° South 464 534 36,000  Level Jacksonville Center
Sat 01:20:22 PM 33.8889 -77.6717 196° South 464 534 36,000  Level Jacksonville Center
Sat 01:21:22 PM 33.7653 -77.7089 194° South 464 534 36,000 -50 Level Jacksonville Center
Sat 01:22:22 PM 33.6275 -77.7544 195° South 469 540 35,900 -50 Descending Jacksonville Center
Sat 01:23:22 PM 33.5164 -77.7908 195° South 469 540 35,900 50 Level Jacksonville Center
Sat 01:24:22 PM 33.3925 -77.8278 194° South 469 540 36,000  Climbing Jacksonville Center
Sat 01:25:22 PM 33.2689 -77.8697 196° South 469 540 35,900  Descending Jacksonville Center
Sat 01:26:22 PM 33.1433 -77.9089 195° South 469 540 36,000  Climbing Jacksonville Center
Sat 01:27:22 PM 33.0194 -77.9456 194° South 469 540 35,900  Descending Jacksonville Center
Sat 01:28:22 PM 32.8936 -77.9847 195° South 469 540 36,000 50 Climbing Jacksonville Center
Sat 01:29:22 PM 32.7700 -78.0233 195° South 469 540 36,000 -50 Level Jacksonville Center
Sat 01:30:22 PM 32.6442 -78.0622 195° South 469 540 35,900  Descending Jacksonville Center
Sat 01:31:22 PM 32.5225 -78.0983 194° South 469 540 36,000  Climbing Jacksonville Center
Sat 01:32:22 PM 32.3989 -78.1392 196° South 469 540 35,900 -50 Descending Jacksonville Center
Sat 01:33:22 PM 32.2750 -78.1778 195° South 464 534 35,900  Level Jacksonville Center
Sat 01:34:22 PM 32.1514 -78.2208 196° South 464 534 35,900 50 Level Jacksonville Center
Sat 01:35:22 PM 32.0294 -78.2539 193° South 464 534 36,000  Climbing Jacksonville Center
Sat 01:36:22 PM 31.9058 -78.2969 196° South 464 534 35,900  Descending Jacksonville Center
Sat 01:37:22 PM 31.7797 -78.3375 195° South 469 540 36,000 50 Climbing Jacksonville Center
Sat 01:38:22 PM 31.6581 -78.3750 195° South 469 540 36,000 -50 Level Jacksonville Center
Sat 01:39:22 PM 31.5383 -78.4100 194° South 459 528 35,900  Descending Jacksonville Center
Sat 01:40:22 PM 31.4125 -78.4528 196° South 459 528 36,000  Climbing Jacksonville Center
Sat 01:41:22 PM 31.2886 -78.4928 195° South 464 534 35,900  Descending Jacksonville Center
Sat 01:42:22 PM 31.1667 -78.5322 195° South 464 534 36,000 50 Climbing Jacksonville Center
Sat 01:43:22 PM 31.0428 -78.5694 194° South 464 534 36,000 -50 Level Jacksonville Center
Sat 01:44:22 PM 30.9208 -78.6092 196° South 464 534 35,900 -50 Descending Jacksonville Center
Sat 01:45:22 PM 30.7908 -78.6464 194° South 464 534 35,900 50 Level Jacksonville Center
Sat 01:46:22 PM 30.6667 -78.6856 195° South 470 541 36,000 50 Climbing Jacksonville Center
Sat 01:47:22 PM 30.5431 -78.7297 197° South 470 541 36,000 -50 Level Jacksonville Center
Sat 01:48:22 PM 30.4211 -78.7736 197° South 470 541 35,900  Descending Jacksonville Center
Sat 01:49:30 PM 30.2647 -78.8275 197° South 484 557 36,000  Climbing Miami Center
Sat 01:50:30 PM 30.1431 -78.8731 198° South 479 551 35,900  Descending Miami Center
Sat 01:51:30 PM 30.0217 -78.9164 197° South 466 536 36,000 50 Climbing Miami Center
Sat 01:52:30 PM 29.8958 -78.9667 199° South 466 536 36,000  Level Miami Center
Sat 01:53:30 PM 29.7722 -79.0072 196° South 466 536 36,000 -700 Level Miami Center
Sat 01:54:30 PM 29.6531 -79.0286 189° South 452 520 34,600 -1,000 Descending Miami Center
Sat 01:55:30 PM 29.5317 -79.0453 187° South 452 520 34,000 -300 Descending Miami Center
Sat 01:56:30 PM 29.4125 -79.0692 190° South 446 513 34,000  Level Miami Center
Sat 01:57:30 PM 29.2892 -79.0881 188° South 446 513 34,000  Level Miami Center
Sat 01:58:30 PM 29.1678 -79.1094 189° South 441 507 34,000  Level Miami Center
Sat 01:59:30 PM 29.0569 -79.1333 191° South 441 507 34,000 -350 Level Miami Center
Sat 02:00:30 PM 28.9375 -79.1522 188° South 441 507 33,300 -850 Descending Miami Center
Sat 02:01:30 PM 28.8267 -79.1711 188° South 430 495 32,300 -950 Descending Miami Center
Sat 02:02:30 PM 28.7219 -79.1903 189° South 405 466 31,400 -950 Descending Miami Center
Sat 02:03:30 PM 28.6175 -79.2094 189° South 391 450 30,400 -1,000 Descending Miami Center
Sat 02:04:30 PM 28.5147 -79.2286 189° South 386 444 29,400 -1,000 Descending Miami Center
Sat 02:05:30 PM 28.4164 -79.2478 190° South 381 438 28,400 -950 Descending Miami Center
Sat 02:06:30 PM 28.3203 -79.2622 188° South 364 419 27,500 -950 Descending Miami Center
Sat 02:07:30 PM 28.2217 -79.2814 190° South 357 411 26,500 -1,150 Descending Miami Center
Sat 02:08:30 PM 28.1358 -79.2983 190° South 343 395 25,200 -1,250 Descending Miami Center
Sat 02:09:30 PM 28.0436 -79.3150 189° South 337 388 24,000 -1,050 Descending Miami Center
Sat 02:10:30 PM 27.9536 -79.3319 189° South 331 381 23,100 -900 Descending Miami Center
Sat 02:11:30 PM 27.8844 -79.3444 189° South 331 381 22,200 -1,000 Descending Miami Center
Sat 02:12:30 PM 27.7903 -79.3614 189° South 301 346 21,100 -1,000 Descending Miami Center
Sat 02:13:30 PM 27.7128 -79.3736 188° South 289 333 20,200 -950 Descending Miami Center
Sat 02:14:30 PM 27.6353 -79.3883 190° South 289 333 19,200 -950 Descending Miami Center
Sat 02:15:30 PM 27.5661 -79.4008 189° South 283 326 18,300 -950 Descending Miami Center
Sat 02:16:30 PM 27.4825 -79.4156 189° South 278 320 17,300 -650 Descending Miami Center
Sat 02:17:30 PM 27.4500 -79.4803 241° Southwest 247 284 17,000 -150 Descending Miami Center
Sat 02:18:30 PM 27.5183 -79.5169 335° Northwest 193 222 17,000  Level Miami Center
Sat 02:19:30 PM 27.5911 -79.5256 354° North 237 273 17,000  Level Miami Center
Sat 02:20:30 PM 27.6706 -79.5275 359° North 277 319 17,000  Level Miami Center
Sat 02:21:30 PM 27.6700 -79.4431 90° East 175 201 17,000  Level Miami Center
Sat 02:22:30 PM 27.5969 -79.4297 171° South 199 229 17,000  Level Miami Center
Sat 02:23:30 PM 27.5200 -79.4186 173° South 254 292 17,000  Level Miami Center
Sat 02:24:30 PM 27.4594 -79.4219 183° South 269 310 17,000  Level Miami Center
Sat 02:25:30 PM 27.4622 -79.5017 272° West 191 220 17,000  Level Miami Center
Sat 02:26:30 PM 27.5453 -79.5200 349° North 192 221 17,000  Level Miami Center
Sat 02:27:30 PM 27.6286 -79.5311 353° North 255 293 17,000  Level Miami Center
Sat 02:28:30 PM 27.6878 -79.4975 27° Northeast 265 305 17,000  Level Miami Center
Sat 02:29:30 PM 27.6492 -79.4381 126° Southeast 186 214 17,000  Level Miami Center
Sat 02:30:30 PM 27.5658 -79.4267 173° South 228 262 17,000  Level Miami Center
Sat 02:31:30 PM 27.4908 -79.4156 173° South 258 297 17,000 -450 Level Miami Center
Sat 02:32:30 PM 27.4378 -79.4636 219° Southwest 244 281 16,100 -500 Descending Miami Center
Sat 02:33:30 PM 27.4653 -79.5486 290° West 212 244 16,000 -50 Descending Miami Center
Sat 02:34:30 PM 27.4950 -79.6475 289° West 287 330 16,000  Level Miami Center
Sat 02:35:30 PM 27.5342 -79.7703 290° West 364 419 16,000  Level Miami Center
Sat 02:36:30 PM 27.5694 -79.8814 290° West 383 441 16,000  Level Miami Center
Sat 02:37:30 PM 27.6028 -79.9875 290° West 377 434 16,000  Level Miami Center
Sat 02:38:30 PM 27.6300 -80.0797 288° West 354 407 16,000 -1,600 Level Miami Center
Sat 02:39:30 PM 27.5800 -80.1672 237° Southwest 292 336 12,800 -2,850 Descending Miami Center
Sat 02:40:30 PM 27.4819 -80.1669 180° South 260 299 10,300 -1,400 Descending Miami Center
Sat 02:41:30 PM 27.3817 -80.1594 176° South 337 388 10,000 -150 Descending Miami Center
Sat 02:42:30 PM 27.2986 -80.1500 174° South 339 390 10,000 -400 Level Miami Center
Sat 02:43:30 PM 27.2300 -80.1269 163° South 301 346 9,200 -1,650 Descending Miami Center
Sat 02:44:30 PM 27.1519 -80.0781 151° Southeast 289 333 6,700 -2,100 Descending Miami Center
Sat 02:45:30 PM 27.0947 -80.0181 137° Southeast 281 323 5,000 -900 Descending Miami Center
Sat 02:47:00 PM 26.9460 -80.0461 180° South  Level Estimated
Sat 02:47:30 PM 26.9928 -79.9058 180° South 269 310 4,000  Level Miami Center
Sat 02:48:30 PM 26.9375 -79.8486 137° Southeast 264 304 3,000 -500 Descending Miami Center
Sat 02:49:30 PM 26.8694 -79.8003 148° Southeast 264 304 3,000  Level Miami Center
Sat 02:50:30 PM 26.8022 -79.8194 194° South 246 283 3,000  Level Miami Center
Sat 02:52:00 PM 26.7368 -79.9714 244° Southwest  Level Estimated

Login

Don't have an account? Register now (free) for customized features, flight alerts, and more!